Polis, Cyprus
Current Conditions -  °F | °C
As of 3:30 AM on Wednesday 26 Nov 2014 (Local Time) from LCPH Reporting Station
Few Clouds Few Clouds  
Wind Chill: 59°   Ceiling: Unl
Heat Index: 59°   Visibility: 6mi
Dew Point: 45°   Wind: 20mph
Humidity: 59%   Direction: 270°W
Pressure: 29.74"   Gusts: NA
Location:  35.03°N, 32.41°E
Report Text: LCPH 260030Z AUTO 27017KT 9999 FEW039 15/07 Q1007
Loading
Personal Weather Stations






























Interactive Weather Map New forecast layout! Learn more

10-Day Weather Forecast

Advertisements
Track Severe Weather on mobile